sensor_id;sensor_type;location;lat;lon;timestamp;temperature;humidity
21047;DHT22;10682;50.874;3.656;2023-11-19T00:00:09;14.00;99.90
21047;DHT22;10682;50.874;3.656;2023-11-19T00:02:39;14.00;99.90
21047;DHT22;10682;50.874;3.656;2023-11-19T00:05:08;14.00;99.90
21047;DHT22;10682;50.874;3.656;2023-11-19T00:07:36;14.10;99.90
21047;DHT22;10682;50.874;3.656;2023-11-19T00:10:12;14.10;99.90
21047;DHT22;10682;50.874;3.656;2023-11-19T00:12:49;14.10;99.90
21047;DHT22;10682;50.874;3.656;2023-11-19T00:15:17;14.10;99.90
21047;DHT22;10682;50.874;3.656;2023-11-19T00:17:46;14.10;99.90
21047;DHT22;10682;50.874;3.656;2023-11-19T00:20:17;14.10;99.90
21047;DHT22;10682;50.874;3.656;2023-11-19T00:22:45;14.10;99.90
21047;DHT22;10682;50.874;3.656;2023-11-19T00:25:19;14.10;99.90
21047;DHT22;10682;50.874;3.656;2023-11-19T00:27:48;14.10;99.90
21047;DHT22;10682;50.874;3.656;2023-11-19T00:30:17;14.10;99.90
21047;DHT22;10682;50.874;3.656;2023-11-19T00:32:45;14.10;99.90
21047;DHT22;10682;50.874;3.656;2023-11-19T00:35:12;14.10;99.90
21047;DHT22;10682;50.874;3.656;2023-11-19T00:37:42;14.10;99.90
21047;DHT22;10682;50.874;3.656;2023-11-19T00:40:10;14.10;99.90
21047;DHT22;10682;50.874;3.656;2023-11-19T00:42:38;14.00;99.90
21047;DHT22;10682;50.874;3.656;2023-11-19T00:45:05;14.10;99.90
21047;DHT22;10682;50.874;3.656;2023-11-19T00:47:37;14.10;99.90
21047;DHT22;10682;50.874;3.656;2023-11-19T00:50:04;14.20;99.90
21047;DHT22;10682;50.874;3.656;2023-11-19T00:52:32;14.10;99.90
21047;DHT22;10682;50.874;3.656;2023-11-19T00:55:03;14.00;99.90
21047;DHT22;10682;50.874;3.656;2023-11-19T00:57:31;14.00;99.90
21047;DHT22;10682;50.874;3.656;2023-11-19T01:00:02;14.00;99.90
21047;DHT22;10682;50.874;3.656;2023-11-19T01:02:42;14.00;99.90
21047;DHT22;10682;50.874;3.656;2023-11-19T01:05:09;13.90;99.90
21047;DHT22;10682;50.874;3.656;2023-11-19T01:07:36;13.80;99.90
21047;DHT22;10682;50.874;3.656;2023-11-19T01:10:03;13.80;99.90
21047;DHT22;10682;50.874;3.656;2023-11-19T01:12:31;13.70;99.90
21047;DHT22;10682;50.874;3.656;2023-11-19T01:14:58;13.70;99.90
21047;DHT22;10682;50.874;3.656;2023-11-19T01:17:25;13.80;99.90
21047;DHT22;10682;50.874;3.656;2023-11-19T01:19:52;13.70;99.90
21047;DHT22;10682;50.874;3.656;2023-11-19T01:22:19;13.80;99.90
21047;DHT22;10682;50.874;3.656;2023-11-19T01:24:46;13.80;99.90
21047;DHT22;10682;50.874;3.656;2023-11-19T01:27:13;13.80;99.90
21047;DHT22;10682;50.874;3.656;2023-11-19T01:29:40;13.80;99.90
21047;DHT22;10682;50.874;3.656;2023-11-19T01:32:09;13.80;99.90
21047;DHT22;10682;50.874;3.656;2023-11-19T01:34:36;13.70;99.90
21047;DHT22;10682;50.874;3.656;2023-11-19T01:37:04;13.70;99.90
21047;DHT22;10682;50.874;3.656;2023-11-19T01:39:31;13.60;99.90
21047;DHT22;10682;50.874;3.656;2023-11-19T01:41:58;13.60;99.90
21047;DHT22;10682;50.874;3.656;2023-11-19T01:44:25;13.60;99.90
21047;DHT22;10682;50.874;3.656;2023-11-19T01:46:52;13.70;99.90
21047;DHT22;10682;50.874;3.656;2023-11-19T01:49:20;13.60;99.90
21047;DHT22;10682;50.874;3.656;2023-11-19T01:51:47;13.70;99.90
21047;DHT22;10682;50.874;3.656;2023-11-19T01:54:14;13.70;99.90
21047;DHT22;10682;50.874;3.656;2023-11-19T01:56:42;13.70;99.90
21047;DHT22;10682;50.874;3.656;2023-11-19T01:59:11;13.70;99.90
21047;DHT22;10682;50.874;3.656;2023-11-19T02:01:41;13.70;99.90
21047;DHT22;10682;50.874;3.656;2023-11-19T02:04:09;13.70;99.90
21047;DHT22;10682;50.874;3.656;2023-11-19T02:06:39;13.70;99.90
21047;DHT22;10682;50.874;3.656;2023-11-19T02:09:09;13.70;99.90
21047;DHT22;10682;50.874;3.656;2023-11-19T02:11:40;13.70;99.90
21047;DHT22;10682;50.874;3.656;2023-11-19T02:14:07;13.60;99.90
21047;DHT22;10682;50.874;3.656;2023-11-19T02:16:34;13.60;99.90
21047;DHT22;10682;50.874;3.656;2023-11-19T02:19:02;13.50;99.90
21047;DHT22;10682;50.874;3.656;2023-11-19T02:21:30;13.50;99.90
21047;DHT22;10682;50.874;3.656;2023-11-19T02:23:57;13.40;99.90
21047;DHT22;10682;50.874;3.656;2023-11-19T02:26:46;13.40;99.90
21047;DHT22;10682;50.874;3.656;2023-11-19T02:29:36;13.30;99.90
21047;DHT22;10682;50.874;3.656;2023-11-19T02:32:05;13.30;99.90
21047;DHT22;10682;50.874;3.656;2023-11-19T02:34:32;13.30;99.90
21047;DHT22;10682;50.874;3.656;2023-11-19T02:36:59;13.30;99.90
21047;DHT22;10682;50.874;3.656;2023-11-19T02:39:26;13.30;99.90
21047;DHT22;10682;50.874;3.656;2023-11-19T02:41:53;13.30;99.90
21047;DHT22;10682;50.874;3.656;2023-11-19T02:44:20;13.20;99.90
21047;DHT22;10682;50.874;3.656;2023-11-19T02:46:47;13.20;99.90
21047;DHT22;10682;50.874;3.656;2023-11-19T02:49:15;13.20;99.90
21047;DHT22;10682;50.874;3.656;2023-11-19T02:51:42;13.20;99.90
21047;DHT22;10682;50.874;3.656;2023-11-19T02:54:09;13.20;99.90
21047;DHT22;10682;50.874;3.656;2023-11-19T02:56:36;13.10;99.90
21047;DHT22;10682;50.874;3.656;2023-11-19T02:59:05;13.10;99.90
21047;DHT22;10682;50.874;3.656;2023-11-19T03:01:35;13.00;99.90
21047;DHT22;10682;50.874;3.656;2023-11-19T03:04:03;13.00;99.90
21047;DHT22;10682;50.874;3.656;2023-11-19T03:06:31;13.00;99.90
21047;DHT22;10682;50.874;3.656;2023-11-19T03:08:58;12.90;99.90
21047;DHT22;10682;50.874;3.656;2023-11-19T03:11:32;12.90;99.90
21047;DHT22;10682;50.874;3.656;2023-11-19T03:13:59;13.00;99.90
21047;DHT22;10682;50.874;3.656;2023-11-19T03:16:26;13.00;99.90
21047;DHT22;10682;50.874;3.656;2023-11-19T03:18:53;12.90;99.90
21047;DHT22;10682;50.874;3.656;2023-11-19T03:21:30;12.90;99.90
21047;DHT22;10682;50.874;3.656;2023-11-19T03:24:01;12.90;99.90
21047;DHT22;10682;50.874;3.656;2023-11-19T03:26:28;12.90;99.90
21047;DHT22;10682;50.874;3.656;2023-11-19T03:28:55;12.90;99.90
21047;DHT22;10682;50.874;3.656;2023-11-19T03:31:23;13.00;99.90
21047;DHT22;10682;50.874;3.656;2023-11-19T03:33:52;13.00;99.90
21047;DHT22;10682;50.874;3.656;2023-11-19T03:36:21;13.00;99.90
21047;DHT22;10682;50.874;3.656;2023-11-19T03:38:48;13.00;99.90
21047;DHT22;10682;50.874;3.656;2023-11-19T03:41:15;13.00;99.90
21047;DHT22;10682;50.874;3.656;2023-11-19T03:43:43;13.00;99.90
21047;DHT22;10682;50.874;3.656;2023-11-19T03:46:20;13.10;99.90
21047;DHT22;10682;50.874;3.656;2023-11-19T03:48:49;13.00;99.90
21047;DHT22;10682;50.874;3.656;2023-11-19T03:51:17;13.00;99.90
21047;DHT22;10682;50.874;3.656;2023-11-19T03:53:47;13.00;99.90
21047;DHT22;10682;50.874;3.656;2023-11-19T03:56:14;13.00;99.90
21047;DHT22;10682;50.874;3.656;2023-11-19T03:58:41;13.00;99.90
21047;DHT22;10682;50.874;3.656;2023-11-19T04:01:12;13.00;99.90
21047;DHT22;10682;50.874;3.656;2023-11-19T04:03:40;13.00;99.90
21047;DHT22;10682;50.874;3.656;2023-11-19T04:06:17;13.00;99.90
21047;DHT22;10682;50.874;3.656;2023-11-19T04:08:44;13.00;99.90
21047;DHT22;10682;50.874;3.656;2023-11-19T04:11:11;12.90;99.90
21047;DHT22;10682;50.874;3.656;2023-11-19T04:13:38;12.90;99.90
21047;DHT22;10682;50.874;3.656;2023-11-19T04:16:06;12.90;99.90
21047;DHT22;10682;50.874;3.656;2023-11-19T04:18:33;12.80;99.90
21047;DHT22;10682;50.874;3.656;2023-11-19T04:21:01;12.80;99.90
21047;DHT22;10682;50.874;3.656;2023-11-19T04:23:28;12.90;99.90
21047;DHT22;10682;50.874;3.656;2023-11-19T04:25:55;12.80;99.90
21047;DHT22;10682;50.874;3.656;2023-11-19T04:28:36;12.80;99.90
21047;DHT22;10682;50.874;3.656;2023-11-19T04:31:04;12.70;99.90
21047;DHT22;10682;50.874;3.656;2023-11-19T04:33:32;12.70;99.90
21047;DHT22;10682;50.874;3.656;2023-11-19T04:36:00;12.60;99.90
21047;DHT22;10682;50.874;3.656;2023-11-19T04:38:27;12.60;99.90
21047;DHT22;10682;50.874;3.656;2023-11-19T04:40:54;12.60;99.90
21047;DHT22;10682;50.874;3.656;2023-11-19T04:43:24;12.60;99.90
21047;DHT22;10682;50.874;3.656;2023-11-19T04:45:51;12.60;99.90
21047;DHT22;10682;50.874;3.656;2023-11-19T04:48:18;12.50;99.90
21047;DHT22;10682;50.874;3.656;2023-11-19T04:50:45;12.60;99.90
21047;DHT22;10682;50.874;3.656;2023-11-19T04:53:12;12.60;99.90
21047;DHT22;10682;50.874;3.656;2023-11-19T04:55:39;12.50;99.90
21047;DHT22;10682;50.874;3.656;2023-11-19T04:58:06;12.50;99.90
21047;DHT22;10682;50.874;3.656;2023-11-19T05:00:33;12.50;99.90
21047;DHT22;10682;50.874;3.656;2023-11-19T05:03:00;12.40;99.90
21047;DHT22;10682;50.874;3.656;2023-11-19T05:05:28;12.30;99.90
21047;DHT22;10682;50.874;3.656;2023-11-19T05:07:56;12.20;99.90
21047;DHT22;10682;50.874;3.656;2023-11-19T05:10:23;12.20;99.90
21047;DHT22;10682;50.874;3.656;2023-11-19T05:12:51;12.10;99.90
21047;DHT22;10682;50.874;3.656;2023-11-19T05:15:19;12.10;99.90
21047;DHT22;10682;50.874;3.656;2023-11-19T05:17:46;12.00;99.90
21047;DHT22;10682;50.874;3.656;2023-11-19T05:20:13;12.00;99.90
21047;DHT22;10682;50.874;3.656;2023-11-19T05:22:41;11.90;99.90
21047;DHT22;10682;50.874;3.656;2023-11-19T05:25:08;11.90;99.90
21047;DHT22;10682;50.874;3.656;2023-11-19T05:27:38;12.00;99.90
21047;DHT22;10682;50.874;3.656;2023-11-19T05:30:06;12.00;99.90
21047;DHT22;10682;50.874;3.656;2023-11-19T05:32:38;12.10;99.90
21047;DHT22;10682;50.874;3.656;2023-11-19T05:35:05;12.10;99.90
21047;DHT22;10682;50.874;3.656;2023-11-19T05:37:33;12.00;99.90
21047;DHT22;10682;50.874;3.656;2023-11-19T05:40:01;11.90;99.90
21047;DHT22;10682;50.874;3.656;2023-11-19T05:42:31;11.90;99.90
21047;DHT22;10682;50.874;3.656;2023-11-19T05:44:58;11.90;99.90
21047;DHT22;10682;50.874;3.656;2023-11-19T05:47:25;11.80;99.90
21047;DHT22;10682;50.874;3.656;2023-11-19T05:49:52;11.80;99.90
21047;DHT22;10682;50.874;3.656;2023-11-19T05:52:20;11.80;99.90
21047;DHT22;10682;50.874;3.656;2023-11-19T05:54:48;11.90;99.90
21047;DHT22;10682;50.874;3.656;2023-11-19T05:57:18;11.80;99.90
21047;DHT22;10682;50.874;3.656;2023-11-19T05:59:50;11.90;99.90
21047;DHT22;10682;50.874;3.656;2023-11-19T06:02:17;11.90;99.90
21047;DHT22;10682;50.874;3.656;2023-11-19T06:04:44;11.90;99.90
21047;DHT22;10682;50.874;3.656;2023-11-19T06:07:14;11.80;99.90
21047;DHT22;10682;50.874;3.656;2023-11-19T06:09:42;11.80;99.90
21047;DHT22;10682;50.874;3.656;2023-11-19T06:12:09;11.70;99.90
21047;DHT22;10682;50.874;3.656;2023-11-19T06:14:36;11.70;99.90
21047;DHT22;10682;50.874;3.656;2023-11-19T06:17:03;11.80;99.90
21047;DHT22;10682;50.874;3.656;2023-11-19T06:19:31;11.70;99.90
21047;DHT22;10682;50.874;3.656;2023-11-19T06:22:00;11.70;99.90
21047;DHT22;10682;50.874;3.656;2023-11-19T06:24:27;11.70;99.90
21047;DHT22;10682;50.874;3.656;2023-11-19T06:26:54;11.70;99.90
21047;DHT22;10682;50.874;3.656;2023-11-19T06:29:21;11.70;99.90
21047;DHT22;10682;50.874;3.656;2023-11-19T06:31:48;11.70;99.90
21047;DHT22;10682;50.874;3.656;2023-11-19T06:34:16;11.80;99.90
21047;DHT22;10682;50.874;3.656;2023-11-19T06:36:43;11.80;99.90
21047;DHT22;10682;50.874;3.656;2023-11-19T06:39:10;11.80;99.90
21047;DHT22;10682;50.874;3.656;2023-11-19T06:41:37;11.80;99.90
21047;DHT22;10682;50.874;3.656;2023-11-19T06:44:06;11.80;99.90
21047;DHT22;10682;50.874;3.656;2023-11-19T06:46:33;11.90;99.90
21047;DHT22;10682;50.874;3.656;2023-11-19T06:49:00;11.90;99.90
21047;DHT22;10682;50.874;3.656;2023-11-19T06:51:27;11.90;99.90
21047;DHT22;10682;50.874;3.656;2023-11-19T06:53:56;11.90;99.90
21047;DHT22;10682;50.874;3.656;2023-11-19T06:56:24;11.90;99.90
21047;DHT22;10682;50.874;3.656;2023-11-19T06:58:51;11.90;99.90
21047;DHT22;10682;50.874;3.656;2023-11-19T07:01:19;11.90;99.90
21047;DHT22;10682;50.874;3.656;2023-11-19T07:03:47;11.90;99.90
21047;DHT22;10682;50.874;3.656;2023-11-19T07:06:15;11.80;99.90
21047;DHT22;10682;50.874;3.656;2023-11-19T07:08:43;11.80;99.90
21047;DHT22;10682;50.874;3.656;2023-11-19T07:11:13;11.90;99.90
21047;DHT22;10682;50.874;3.656;2023-11-19T07:13:43;11.80;99.90
21047;DHT22;10682;50.874;3.656;2023-11-19T07:16:14;11.80;99.90
21047;DHT22;10682;50.874;3.656;2023-11-19T07:18:41;11.80;99.90
21047;DHT22;10682;50.874;3.656;2023-11-19T07:21:11;11.80;99.90
21047;DHT22;10682;50.874;3.656;2023-11-19T07:23:38;11.80;99.90
21047;DHT22;10682;50.874;3.656;2023-11-19T07:26:06;11.90;99.90
21047;DHT22;10682;50.874;3.656;2023-11-19T07:28:35;11.90;99.90
21047;DHT22;10682;50.874;3.656;2023-11-19T07:31:02;11.90;99.90
21047;DHT22;10682;50.874;3.656;2023-11-19T07:33:30;11.90;99.90
21047;DHT22;10682;50.874;3.656;2023-11-19T07:35:57;11.90;99.90
21047;DHT22;10682;50.874;3.656;2023-11-19T07:38:24;12.00;99.90
21047;DHT22;10682;50.874;3.656;2023-11-19T07:40:51;12.10;99.90
21047;DHT22;10682;50.874;3.656;2023-11-19T07:43:21;12.20;99.90
21047;DHT22;10682;50.874;3.656;2023-11-19T07:45:48;12.30;99.90
21047;DHT22;10682;50.874;3.656;2023-11-19T07:48:16;12.40;99.90
21047;DHT22;10682;50.874;3.656;2023-11-19T07:50:44;12.30;99.90
21047;DHT22;10682;50.874;3.656;2023-11-19T07:53:12;12.40;99.90
21047;DHT22;10682;50.874;3.656;2023-11-19T07:55:40;12.50;99.90
21047;DHT22;10682;50.874;3.656;2023-11-19T07:58:09;12.70;99.90
21047;DHT22;10682;50.874;3.656;2023-11-19T08:00:37;12.80;99.90
21047;DHT22;10682;50.874;3.656;2023-11-19T08:03:05;12.80;99.90
21047;DHT22;10682;50.874;3.656;2023-11-19T08:05:32;12.70;99.90
21047;DHT22;10682;50.874;3.656;2023-11-19T08:07:59;12.60;99.90
21047;DHT22;10682;50.874;3.656;2023-11-19T08:10:26;12.60;99.90
21047;DHT22;10682;50.874;3.656;2023-11-19T08:12:53;12.50;99.90
21047;DHT22;10682;50.874;3.656;2023-11-19T08:15:21;12.50;99.90
21047;DHT22;10682;50.874;3.656;2023-11-19T08:17:50;12.40;99.90
21047;DHT22;10682;50.874;3.656;2023-11-19T08:20:18;12.40;99.90
21047;DHT22;10682;50.874;3.656;2023-11-19T08:22:47;12.30;99.90
21047;DHT22;10682;50.874;3.656;2023-11-19T08:25:14;12.20;99.90
21047;DHT22;10682;50.874;3.656;2023-11-19T08:27:41;12.10;99.90
21047;DHT22;10682;50.874;3.656;2023-11-19T08:30:10;12.00;99.90
21047;DHT22;10682;50.874;3.656;2023-11-19T08:32:37;12.00;99.90
21047;DHT22;10682;50.874;3.656;2023-11-19T08:35:04;12.00;99.90
21047;DHT22;10682;50.874;3.656;2023-11-19T08:37:32;12.20;99.90
21047;DHT22;10682;50.874;3.656;2023-11-19T08:39:59;12.70;99.90
21047;DHT22;10682;50.874;3.656;2023-11-19T08:42:27;13.20;99.90
21047;DHT22;10682;50.874;3.656;2023-11-19T08:44:55;13.30;99.90
21047;DHT22;10682;50.874;3.656;2023-11-19T08:47:22;13.40;99.90
21047;DHT22;10682;50.874;3.656;2023-11-19T08:49:53;13.60;99.90
21047;DHT22;10682;50.874;3.656;2023-11-19T08:52:23;13.50;99.90
21047;DHT22;10682;50.874;3.656;2023-11-19T08:54:50;13.50;99.90
21047;DHT22;10682;50.874;3.656;2023-11-19T08:57:17;13.20;99.90
21047;DHT22;10682;50.874;3.656;2023-11-19T08:59:45;13.00;99.90
21047;DHT22;10682;50.874;3.656;2023-11-19T09:02:13;13.10;99.90
21047;DHT22;10682;50.874;3.656;2023-11-19T09:04:41;13.30;99.90
21047;DHT22;10682;50.874;3.656;2023-11-19T09:07:08;13.50;99.90
21047;DHT22;10682;50.874;3.656;2023-11-19T09:09:38;13.70;99.90
21047;DHT22;10682;50.874;3.656;2023-11-19T09:12:05;13.90;99.90
21047;DHT22;10682;50.874;3.656;2023-11-19T09:14:32;13.80;99.90
21047;DHT22;10682;50.874;3.656;2023-11-19T09:17:00;13.60;99.90
21047;DHT22;10682;50.874;3.656;2023-11-19T09:19:28;13.50;99.90
21047;DHT22;10682;50.874;3.656;2023-11-19T09:21:55;13.70;99.90
21047;DHT22;10682;50.874;3.656;2023-11-19T09:24:23;13.80;99.90
21047;DHT22;10682;50.874;3.656;2023-11-19T09:26:50;13.80;99.90
21047;DHT22;10682;50.874;3.656;2023-11-19T09:29:17;13.80;99.90
21047;DHT22;10682;50.874;3.656;2023-11-19T09:31:44;13.80;99.90
21047;DHT22;10682;50.874;3.656;2023-11-19T09:34:11;13.80;99.90
21047;DHT22;10682;50.874;3.656;2023-11-19T09:36:38;13.80;99.90
21047;DHT22;10682;50.874;3.656;2023-11-19T09:39:13;13.80;99.90
21047;DHT22;10682;50.874;3.656;2023-11-19T09:41:45;13.70;99.90
21047;DHT22;10682;50.874;3.656;2023-11-19T09:44:12;13.60;99.90
21047;DHT22;10682;50.874;3.656;2023-11-19T09:46:41;13.50;99.90
21047;DHT22;10682;50.874;3.656;2023-11-19T09:49:09;13.40;99.90
21047;DHT22;10682;50.874;3.656;2023-11-19T09:51:37;13.50;99.90
21047;DHT22;10682;50.874;3.656;2023-11-19T09:54:04;13.60;99.90
21047;DHT22;10682;50.874;3.656;2023-11-19T09:56:33;13.80;99.90
21047;DHT22;10682;50.874;3.656;2023-11-19T09:59:02;13.70;99.90
21047;DHT22;10682;50.874;3.656;2023-11-19T10:01:29;13.60;99.90
21047;DHT22;10682;50.874;3.656;2023-11-19T10:03:58;13.50;99.90
21047;DHT22;10682;50.874;3.656;2023-11-19T10:06:26;13.40;99.90
21047;DHT22;10682;50.874;3.656;2023-11-19T10:08:54;13.30;99.90
21047;DHT22;10682;50.874;3.656;2023-11-19T10:11:22;13.30;99.90
21047;DHT22;10682;50.874;3.656;2023-11-19T10:13:49;13.20;99.90
21047;DHT22;10682;50.874;3.656;2023-11-19T10:16:18;13.10;99.90
21047;DHT22;10682;50.874;3.656;2023-11-19T10:18:46;13.10;99.90
21047;DHT22;10682;50.874;3.656;2023-11-19T10:21:19;13.00;99.90
21047;DHT22;10682;50.874;3.656;2023-11-19T10:23:51;13.10;99.90
21047;DHT22;10682;50.874;3.656;2023-11-19T10:26:21;13.10;99.90
21047;DHT22;10682;50.874;3.656;2023-11-19T10:28:48;13.20;99.90
21047;DHT22;10682;50.874;3.656;2023-11-19T10:31:16;13.30;99.90
21047;DHT22;10682;50.874;3.656;2023-11-19T10:33:45;13.40;99.90
21047;DHT22;10682;50.874;3.656;2023-11-19T10:36:13;13.50;99.90
21047;DHT22;10682;50.874;3.656;2023-11-19T10:38:55;13.50;99.90
21047;DHT22;10682;50.874;3.656;2023-11-19T10:41:27;13.50;99.90
21047;DHT22;10682;50.874;3.656;2023-11-19T10:43:59;13.30;99.90
21047;DHT22;10682;50.874;3.656;2023-11-19T10:46:40;13.30;99.90
21047;DHT22;10682;50.874;3.656;2023-11-19T10:49:09;13.30;99.90
21047;DHT22;10682;50.874;3.656;2023-11-19T10:51:36;13.30;99.90
21047;DHT22;10682;50.874;3.656;2023-11-19T10:54:06;13.40;99.90
21047;DHT22;10682;50.874;3.656;2023-11-19T10:56:34;13.60;99.90
21047;DHT22;10682;50.874;3.656;2023-11-19T10:59:04;13.60;99.90
21047;DHT22;10682;50.874;3.656;2023-11-19T11:01:53;13.70;99.90
21047;DHT22;10682;50.874;3.656;2023-11-19T11:04:25;13.80;99.90
21047;DHT22;10682;50.874;3.656;2023-11-19T11:06:55;13.90;99.90
21047;DHT22;10682;50.874;3.656;2023-11-19T11:09:23;13.90;99.90
21047;DHT22;10682;50.874;3.656;2023-11-19T11:11:51;13.90;99.90
21047;DHT22;10682;50.874;3.656;2023-11-19T11:14:20;14.10;99.90
21047;DHT22;10682;50.874;3.656;2023-11-19T11:16:48;14.00;99.90
21047;DHT22;10682;50.874;3.656;2023-11-19T11:19:17;14.00;99.90
21047;DHT22;10682;50.874;3.656;2023-11-19T11:21:50;14.00;99.90
21047;DHT22;10682;50.874;3.656;2023-11-19T11:30:03;14.30;99.90
21047;DHT22;10682;50.874;3.656;2023-11-19T11:32:44;14.40;99.90
21047;DHT22;10682;50.874;3.656;2023-11-19T11:35:49;14.30;99.90
21047;DHT22;10682;50.874;3.656;2023-11-19T11:38:22;14.10;99.90
21047;DHT22;10682;50.874;3.656;2023-11-19T11:43:53;14.20;99.90
21047;DHT22;10682;50.874;3.656;2023-11-19T11:49:02;14.00;99.90
21047;DHT22;10682;50.874;3.656;2023-11-19T11:52:00;13.90;99.90
21047;DHT22;10682;50.874;3.656;2023-11-19T11:54:28;13.70;99.90
21047;DHT22;10682;50.874;3.656;2023-11-19T11:57:11;13.60;99.90
21047;DHT22;10682;50.874;3.656;2023-11-19T11:59:50;13.30;99.90
21047;DHT22;10682;50.874;3.656;2023-11-19T12:02:21;13.10;99.90
21047;DHT22;10682;50.874;3.656;2023-11-19T12:04:50;13.00;99.90
21047;DHT22;10682;50.874;3.656;2023-11-19T12:07:23;13.00;99.90
21047;DHT22;10682;50.874;3.656;2023-11-19T12:10:06;13.00;99.90
21047;DHT22;10682;50.874;3.656;2023-11-19T12:12:35;13.00;99.90
21047;DHT22;10682;50.874;3.656;2023-11-19T12:15:08;13.10;99.90
21047;DHT22;10682;50.874;3.656;2023-11-19T12:17:47;13.30;99.90
21047;DHT22;10682;50.874;3.656;2023-11-19T12:20:26;13.50;99.90
21047;DHT22;10682;50.874;3.656;2023-11-19T12:22:56;13.60;99.90
21047;DHT22;10682;50.874;3.656;2023-11-19T12:25:23;13.60;99.90
21047;DHT22;10682;50.874;3.656;2023-11-19T12:27:51;13.60;99.90
21047;DHT22;10682;50.874;3.656;2023-11-19T12:30:23;13.50;99.90
21047;DHT22;10682;50.874;3.656;2023-11-19T12:32:53;13.40;99.90
21047;DHT22;10682;50.874;3.656;2023-11-19T12:35:23;13.30;99.90
21047;DHT22;10682;50.874;3.656;2023-11-19T12:37:51;13.30;99.90
21047;DHT22;10682;50.874;3.656;2023-11-19T12:40:23;13.20;99.90
21047;DHT22;10682;50.874;3.656;2023-11-19T12:42:53;13.10;99.90
21047;DHT22;10682;50.874;3.656;2023-11-19T12:45:21;13.00;99.90
21047;DHT22;10682;50.874;3.656;2023-11-19T12:48:07;13.00;99.90
21047;DHT22;10682;50.874;3.656;2023-11-19T12:50:55;13.00;99.90
21047;DHT22;10682;50.874;3.656;2023-11-19T12:53:26;13.00;99.90
21047;DHT22;10682;50.874;3.656;2023-11-19T12:55:53;13.10;99.90
21047;DHT22;10682;50.874;3.656;2023-11-19T12:58:33;13.10;99.90
21047;DHT22;10682;50.874;3.656;2023-11-19T13:01:06;13.10;99.90
21047;DHT22;10682;50.874;3.656;2023-11-19T13:03:35;13.10;99.90
21047;DHT22;10682;50.874;3.656;2023-11-19T13:06:10;13.00;99.90
21047;DHT22;10682;50.874;3.656;2023-11-19T13:08:41;13.00;99.90
21047;DHT22;10682;50.874;3.656;2023-11-19T13:11:08;13.00;99.90
21047;DHT22;10682;50.874;3.656;2023-11-19T13:16:23;13.20;99.90
21047;DHT22;10682;50.874;3.656;2023-11-19T13:18:51;13.20;99.90
21047;DHT22;10682;50.874;3.656;2023-11-19T13:21:18;13.20;99.90
21047;DHT22;10682;50.874;3.656;2023-11-19T13:23:45;13.20;99.90
21047;DHT22;10682;50.874;3.656;2023-11-19T13:26:12;13.30;99.90
21047;DHT22;10682;50.874;3.656;2023-11-19T13:28:40;13.30;99.90
21047;DHT22;10682;50.874;3.656;2023-11-19T13:31:07;13.30;99.90
21047;DHT22;10682;50.874;3.656;2023-11-19T13:33:34;13.40;99.90
21047;DHT22;10682;50.874;3.656;2023-11-19T13:36:04;13.30;99.90
21047;DHT22;10682;50.874;3.656;2023-11-19T13:38:35;13.40;99.90
21047;DHT22;10682;50.874;3.656;2023-11-19T13:41:03;13.30;99.90
21047;DHT22;10682;50.874;3.656;2023-11-19T13:43:31;13.20;99.90
21047;DHT22;10682;50.874;3.656;2023-11-19T13:45:59;13.20;99.90
21047;DHT22;10682;50.874;3.656;2023-11-19T13:48:26;13.10;99.90
21047;DHT22;10682;50.874;3.656;2023-11-19T13:50:57;13.00;99.90
21047;DHT22;10682;50.874;3.656;2023-11-19T13:53:24;12.90;99.90
21047;DHT22;10682;50.874;3.656;2023-11-19T13:55:51;12.80;99.90
21047;DHT22;10682;50.874;3.656;2023-11-19T13:58:19;12.80;99.90
21047;DHT22;10682;50.874;3.656;2023-11-19T14:00:46;12.80;99.90
21047;DHT22;10682;50.874;3.656;2023-11-19T14:03:13;12.70;99.90
21047;DHT22;10682;50.874;3.656;2023-11-19T14:05:49;12.70;99.90
21047;DHT22;10682;50.874;3.656;2023-11-19T14:08:19;12.70;99.90
21047;DHT22;10682;50.874;3.656;2023-11-19T14:10:52;12.80;99.90
21047;DHT22;10682;50.874;3.656;2023-11-19T14:13:22;12.90;99.90
21047;DHT22;10682;50.874;3.656;2023-11-19T14:15:50;13.00;99.90
21047;DHT22;10682;50.874;3.656;2023-11-19T14:18:18;13.00;99.90
21047;DHT22;10682;50.874;3.656;2023-11-19T14:20:45;13.00;99.90
21047;DHT22;10682;50.874;3.656;2023-11-19T14:23:12;13.00;99.90
21047;DHT22;10682;50.874;3.656;2023-11-19T14:25:39;13.00;99.90
21047;DHT22;10682;50.874;3.656;2023-11-19T14:28:06;13.00;99.90
21047;DHT22;10682;50.874;3.656;2023-11-19T14:30:34;13.00;99.90
21047;DHT22;10682;50.874;3.656;2023-11-19T14:33:02;13.10;99.90
21047;DHT22;10682;50.874;3.656;2023-11-19T14:35:30;13.00;99.90
21047;DHT22;10682;50.874;3.656;2023-11-19T14:37:59;13.00;99.90
21047;DHT22;10682;50.874;3.656;2023-11-19T14:40:26;12.90;99.90
21047;DHT22;10682;50.874;3.656;2023-11-19T14:42:56;12.90;99.90
21047;DHT22;10682;50.874;3.656;2023-11-19T14:45:24;12.90;99.90
21047;DHT22;10682;50.874;3.656;2023-11-19T14:47:51;12.80;99.90
21047;DHT22;10682;50.874;3.656;2023-11-19T14:50:19;12.80;99.90
21047;DHT22;10682;50.874;3.656;2023-11-19T14:52:46;12.80;99.90
21047;DHT22;10682;50.874;3.656;2023-11-19T14:55:13;12.80;99.90
21047;DHT22;10682;50.874;3.656;2023-11-19T14:57:41;12.80;99.90
21047;DHT22;10682;50.874;3.656;2023-11-19T15:00:15;12.80;99.90
21047;DHT22;10682;50.874;3.656;2023-11-19T15:02:43;12.80;99.90
21047;DHT22;10682;50.874;3.656;2023-11-19T15:05:10;12.80;99.90
21047;DHT22;10682;50.874;3.656;2023-11-19T15:07:38;12.80;99.90
21047;DHT22;10682;50.874;3.656;2023-11-19T15:10:07;12.80;99.90
21047;DHT22;10682;50.874;3.656;2023-11-19T15:12:38;12.90;99.90
21047;DHT22;10682;50.874;3.656;2023-11-19T15:15:10;12.90;99.90
21047;DHT22;10682;50.874;3.656;2023-11-19T15:17:40;12.90;99.90
21047;DHT22;10682;50.874;3.656;2023-11-19T15:20:08;13.00;99.90
21047;DHT22;10682;50.874;3.656;2023-11-19T15:22:35;13.00;99.90
21047;DHT22;10682;50.874;3.656;2023-11-19T15:25:02;13.00;99.90
21047;DHT22;10682;50.874;3.656;2023-11-19T15:27:29;12.90;99.90
21047;DHT22;10682;50.874;3.656;2023-11-19T15:29:56;12.80;99.90
21047;DHT22;10682;50.874;3.656;2023-11-19T15:32:25;12.70;99.90
21047;DHT22;10682;50.874;3.656;2023-11-19T15:34:52;12.60;99.90
21047;DHT22;10682;50.874;3.656;2023-11-19T15:37:19;12.60;99.90
21047;DHT22;10682;50.874;3.656;2023-11-19T15:39:47;12.60;99.90
21047;DHT22;10682;50.874;3.656;2023-11-19T15:42:14;12.50;99.90
21047;DHT22;10682;50.874;3.656;2023-11-19T15:44:41;12.50;99.90
21047;DHT22;10682;50.874;3.656;2023-11-19T15:47:09;12.50;99.90
21047;DHT22;10682;50.874;3.656;2023-11-19T15:49:40;12.40;99.90
21047;DHT22;10682;50.874;3.656;2023-11-19T15:52:07;12.30;99.90
21047;DHT22;10682;50.874;3.656;2023-11-19T15:54:34;12.20;99.90